Flight Track Log - Related Links

Times and Time Zones

All times are in EDT time to prevent confusion due to time zone crossing. See the N75ZM flight status page for this flight to view local times or setup timezone preferences in your user account.

Time Position Orientation Groundspeed Altitude Reporting Facility
EDT Latitude Longitude Course Direction KTS MPH feet Rate Location/Type
Wed 12:25:01 PM 33.9000 -84.3000 23° Northeast 118 136 1,800  Level Atlanta TRACON
Wed 12:25:55 PM 33.9333 -84.2833 23° Northeast 132 152 2,600 895 Climbing Atlanta TRACON
Wed 12:26:55 PM 33.9333 -84.2333 90° East 122 140 3,500 800 Climbing Atlanta TRACON
Wed 12:27:55 PM 33.9333 -84.2000 90° East 129 148 4,200 684 Climbing Atlanta TRACON
Wed 12:28:49 PM 33.9333 -84.1500 90° East 138 159 4,800 500 Climbing Atlanta TRACON
Wed 12:29:55 PM 33.9333 -84.1000 90° East 154 177 5,200 350 Climbing Atlanta TRACON
Wed 12:30:49 PM 33.9333 -84.0500 90° East 163 188 5,500 550 Climbing Atlanta TRACON
Wed 12:31:55 PM 33.9333 -84.0000 90° East 139 160 6,300 762 Climbing Atlanta TRACON
Wed 12:32:55 PM 33.9167 -83.9500 112° Southeast 128 147 7,100 450 Climbing Atlanta TRACON
Wed 12:33:55 PM 33.9167 -83.9000 90° East 157 181 7,200  Climbing Atlanta TRACON
Wed 12:34:55 PM 33.9167 -83.8500 90° East 171 197 7,100  Descending Atlanta TRACON
Wed 12:35:49 PM 33.9000 -83.8000 112° Southeast 170 196 7,200 53 Climbing Atlanta TRACON
Wed 12:36:49 PM 33.9000 -83.7500 90° East 171 197 7,200 -48 Level Atlanta TRACON
Wed 12:37:55 PM 33.9000 -83.6833 90° East 171 197 7,100 -48 Descending Atlanta TRACON
Wed 12:38:55 PM 33.8833 -83.6167 107° East 170 196 7,100  Level Atlanta TRACON
Wed 12:39:50 PM 33.8833 -83.5833 90° East 172 198 7,100  Level Atlanta TRACON
Wed 12:40:50 PM 33.8667 -83.5167 107° East 175 201 7,100  Level Atlanta TRACON
Wed 12:41:50 PM 33.8667 -83.4667 90° East 173 199 7,100  Level Atlanta TRACON
Wed 12:42:50 PM 33.8667 -83.4000 90° East 175 201 7,100  Level Atlanta TRACON
Wed 12:43:50 PM 33.8500 -83.3500 112° Southeast 174 200 7,100  Level Atlanta TRACON
Wed 12:44:50 PM 33.8500 -83.2833 90° East 173 199 7,100  Level Atlanta TRACON
Wed 12:45:50 PM 33.8333 -83.2333 112° Southeast 177 204 7,100  Level Atlanta TRACON
Wed 12:46:50 PM 33.8333 -83.1667 90° East 179 206 7,100  Level Atlanta TRACON
Wed 12:47:50 PM 33.8333 -83.1167 90° East 178 205 7,100  Level Atlanta TRACON
Wed 12:48:50 PM 33.8167 -83.0500 107° East 178 205 7,100  Level Atlanta TRACON
Wed 12:50:00 PM 33.7996 -82.9902 109° East  Level FlightAware Approximate
Wed 12:57:00 PM 33.7503 -82.6166 97° East  Level FlightAware Approximate
Wed 12:58:00 PM 33.7446 -82.5629 97° East  Level FlightAware Approximate
Wed 12:59:00 PM 33.7388 -82.5092 97° East  Level FlightAware Approximate
Wed 01:00:00 PM 33.7331 -82.4554 97° East  Level FlightAware Approximate
Wed 01:01:00 PM 33.7273 -82.4017 97° East  Level FlightAware Approximate
Wed 01:02:00 PM 33.7215 -82.3480 97° East  Level FlightAware Approximate
Wed 01:03:00 PM 33.7157 -82.2943 97° East  Level FlightAware Approximate
Wed 01:04:00 PM 33.7099 -82.2406 97° East  Level FlightAware Approximate
Wed 01:05:00 PM 33.7040 -82.1869 97° East  Level FlightAware Approximate
Wed 01:06:00 PM 33.6939 -82.1348 116° Southeast  Level FlightAware Approximate
Wed 01:07:00 PM 33.6744 -82.0860 116° Southeast  Level FlightAware Approximate
Wed 01:08:00 PM 33.6549 -82.0372 116° Southeast  Level FlightAware Approximate
Wed 01:09:00 PM 33.6354 -81.9884 116° Southeast  Level FlightAware Approximate
Wed 01:10:00 PM 33.6167 -81.9392 114° Southeast  Level FlightAware Approximate
Wed 01:11:00 PM 33.5981 -81.8900 114° Southeast  Level FlightAware Approximate
Wed 01:12:00 PM 33.5795 -81.8407 114° Southeast  Level FlightAware Approximate
Wed 01:13:00 PM 33.5609 -81.7915 114° Southeast  Level FlightAware Approximate
Wed 01:14:00 PM 33.5422 -81.7423 114° Southeast  Level FlightAware Approximate
Wed 01:15:00 PM 33.5236 -81.6931 114° Southeast  Level FlightAware Approximate
Wed 01:16:00 PM 33.5049 -81.6440 114° Southeast  Level FlightAware Approximate
Wed 01:17:00 PM 33.4862 -81.5948 115° Southeast  Level FlightAware Approximate
Wed 01:18:00 PM 33.4674 -81.5457 115° Southeast  Level FlightAware Approximate
Wed 01:19:00 PM 33.4487 -81.4966 114° Southeast  Level FlightAware Approximate
Wed 01:20:00 PM 33.4302 -81.4474 114° Southeast  Level FlightAware Approximate
Wed 01:21:00 PM 33.4116 -81.3983 114° Southeast  Level FlightAware Approximate
Wed 01:22:00 PM 33.3930 -81.3492 114° Southeast  Level FlightAware Approximate
Wed 01:23:00 PM 33.3744 -81.3000 114° Southeast  Level FlightAware Approximate
Wed 01:24:00 PM 33.3558 -81.2509 114° Southeast  Level FlightAware Approximate
Wed 01:25:00 PM 33.3371 -81.2019 114° Southeast  Level FlightAware Approximate
Wed 01:26:00 PM 33.3184 -81.1528 114° Southeast  Level FlightAware Approximate
Wed 01:27:00 PM 33.2997 -81.1038 115° Southeast  Level FlightAware Approximate
Wed 01:28:00 PM 33.2810 -81.0547 115° Southeast  Level FlightAware Approximate
Wed 01:29:00 PM 33.2623 -81.0058 115° Southeast  Level FlightAware Approximate
Wed 01:30:00 PM 33.2435 -80.9568 115° Southeast  Level FlightAware Approximate
Wed 01:31:00 PM 33.2248 -80.9078 115° Southeast  Level FlightAware Approximate
Wed 01:32:00 PM 33.2060 -80.8589 115° Southeast  Level FlightAware Approximate
Wed 01:33:00 PM 33.1872 -80.8100 115° Southeast  Level FlightAware Approximate
Wed 01:34:00 PM 33.1683 -80.7611 115° Southeast  Level FlightAware Approximate
Wed 01:35:00 PM 33.1493 -80.7123 115° Southeast  Level FlightAware Approximate
Wed 01:36:00 PM 33.1304 -80.6635 115° Southeast  Level FlightAware Approximate
Wed 01:37:00 PM 33.1114 -80.6147 115° Southeast  Level FlightAware Approximate
Wed 01:38:00 PM 33.0924 -80.5660 115° Southeast  Level FlightAware Approximate
Wed 01:39:00 PM 33.0734 -80.5172 115° Southeast  Level FlightAware Approximate
Wed 01:40:00 PM 33.0559 -80.4677 112° Southeast  Level FlightAware Approximate
Wed 01:41:00 PM 33.0393 -80.4178 112° Southeast  Level FlightAware Approximate
Wed 01:42:00 PM 33.0226 -80.3679 112° Southeast  Level FlightAware Approximate
Wed 01:43:00 PM 33.0035 -80.3193 117° Southeast  Level FlightAware Approximate
Wed 01:44:00 PM 32.9831 -80.2714 117° Southeast  Level FlightAware Approximate
Wed 01:45:00 PM 32.9626 -80.2236 117° Southeast  Level FlightAware Approximate
Wed 01:46:00 PM 32.9421 -80.1758 117° Southeast  Level FlightAware Approximate
Wed 01:47:00 PM 32.9216 -80.1281 117° Southeast  Level FlightAware Approximate
Wed 01:48:00 PM 32.9019 -80.0798 115° Southeast  Level FlightAware Approximate
Wed 01:49:00 PM 32.8986 -80.0405 115° Southeast  Level Estimated
Wed 01:50:00 PM 32.8986 -80.0405 115° Southeast  Level Estimated
Wed 01:51:00 PM 32.8986 -80.0405 115° Southeast  Level Estimated
Wed 01:52:00 PM 32.8986 -80.0405 115° Southeast  Level Estimated
Wed 01:53:00 PM 32.8986 -80.0405 115° Southeast  Level Estimated

Login

Don't have an account? Register now (free) for customized features, flight alerts, and more!